Bristow, Iowa
Current Conditions -  °F | °C
As of 12:15 AM on Saturday 25 Oct 2014 (Local Time) from KCCY Reporting Station
Moderate Fog Moderate Fog  
Wind Chill: 50°   Ceiling: Unl
Heat Index: 50°   Visibility: 0mi
Dew Point: 50°   Wind: 5mph
Humidity: 100%   Direction: 200°SSW
Pressure: 29.94"   Gusts: NA
Location:  42.77°N, 92.91°W
Report Text: KCCY 250515Z AUTO 20004KT M1/4SM FG VV000 10/10 A2994 RMK AO2
Loading
Personal Weather Stations






























Interactive Weather Map
Tropical Storm Tracking
New forecast layout! Learn more

10-Day Weather Forecast

Advertisements
Track Severe Weather on mobile